Time;durP1;ratioP1;P1;durP2;ratioP2;P2;SDS_P1;SDS_P2;PMS_P1;PMS_P2;Temp;Humidity;BMP_temperature;BMP_pressure;BME280_temperature;BME280_humidity;BME280_pressure;Samples;Min_cycle;Max_cycle;Signal;HPM_P1;HPM_P2
2022/09/21 00:03:54;;;;;;;7.30;2.50;;;;;;;;;;10486658;28;20066;-76
2022/09/21 00:08:57;;;;;;;6.57;3.10;;;;;;;;;;10489024;28;20051;-78
2022/09/21 00:14:03;;;;;;;7.13;2.90;;;;;;;;;;10481805;28;20051;-78
2022/09/21 00:19:07;;;;;;;8.93;3.10;;;;;;;;;;10490206;28;20039;-78
2022/09/21 00:24:11;;;;;;;7.63;3.20;;;;;;;;;;10497850;28;20040;-78
2022/09/21 00:29:14;;;;;;;5.80;2.80;;;;;;;;;;10476160;28;20048;-78
2022/09/21 00:34:18;;;;;;;7.68;3.08;;;;;;;;;;10475408;28;20040;-79
2022/09/21 00:39:21;;;;;;;8.73;3.45;;;;;;;;;;10481285;28;20049;-77
2022/09/21 00:44:32;;;;;;;6.30;2.60;;;;;;;;;;10488401;28;20052;-78
2022/09/21 00:49:36;;;;;;;5.78;2.72;;;;;;;;;;10489593;28;20410;-78
2022/09/21 00:54:42;;;;;;;8.80;2.78;;;;;;;;;;10482847;28;20052;-78
2022/09/21 00:59:46;;;;;;;6.30;2.85;;;;;;;;;;10486456;28;20040;-77
2022/09/21 01:04:52;;;;;;;7.53;3.10;;;;;;;;;;10487486;28;20036;-77
2022/09/21 01:09:57;;;;;;;8.90;3.00;;;;;;;;;;10489620;28;20047;-77
2022/09/21 01:15:06;;;;;;;5.15;2.55;;;;;;;;;;10478874;28;20041;-77
2022/09/21 01:20:32;;;;;;;6.90;3.00;;;;;;;;;;10490572;28;20468;-77
2022/09/21 01:25:39;;;;;;;7.05;2.95;;;;;;;;;;10487022;28;20059;-77
2022/09/21 01:30:44;;;;;;;8.75;2.50;;;;;;;;;;10475139;28;20087;-77
2022/09/21 01:35:58;;;;;;;9.38;3.20;;;;;;;;;;10486856;28;20405;-77
2022/09/21 01:41:03;;;;;;;7.75;2.65;;;;;;;;;;10482378;28;20040;-77
2022/09/21 01:46:12;;;;;;;17.02;3.13;;;;;;;;;;10482985;28;20109;-76
2022/09/21 01:51:18;;;;;;;7.30;2.88;;;;;;;;;;10471056;28;20069;-76
2022/09/21 01:56:25;;;;;;;6.18;2.60;;;;;;;;;;10487572;28;20139;-77
2022/09/21 02:01:43;;;;;;;6.72;3.08;;;;;;;;;;10493928;28;20044;-77
2022/09/21 02:06:53;;;;;;;8.68;3.00;;;;;;;;;;10466310;28;20409;-78
2022/09/21 02:12:00;;;;;;;8.38;3.40;;;;;;;;;;10489839;28;20485;-78
2022/09/21 02:17:11;;;;;;;7.00;2.90;;;;;;;;;;10487565;28;20043;-76
2022/09/21 02:22:17;;;;;;;8.70;2.95;;;;;;;;;;10481899;28;20052;-76
2022/09/21 02:27:28;;;;;;;5.80;2.95;;;;;;;;;;10477996;28;20051;-77
2022/09/21 02:32:48;;;;;;;7.18;2.92;;;;;;;;;;10488144;28;20033;-77
2022/09/21 02:37:58;;;;;;;8.38;3.47;;;;;;;;;;10480025;28;20048;-78
2022/09/21 02:43:08;;;;;;;8.23;3.10;;;;;;;;;;10477890;28;20209;-77
2022/09/21 02:48:18;;;;;;;10.55;3.28;;;;;;;;;;10479173;28;20044;-76
2022/09/21 02:53:25;;;;;;;10.85;3.35;;;;;;;;;;10480407;28;20045;-77
2022/09/21 02:58:36;;;;;;;8.63;2.92;;;;;;;;;;10466972;28;20289;-76
2022/09/21 03:03:57;;;;;;;7.93;2.83;;;;;;;;;;10489426;28;20047;-77
2022/09/21 03:09:07;;;;;;;6.55;3.00;;;;;;;;;;10493901;28;20040;-76
2022/09/21 03:14:11;;;;;;;9.35;3.63;;;;;;;;;;10488233;28;20119;-77
2022/09/21 03:19:29;;;;;;;6.68;3.50;;;;;;;;;;10474719;28;20417;-77
2022/09/21 03:24:47;;;;;;;11.75;3.42;;;;;;;;;;10483807;28;20048;-77
2022/09/21 03:29:51;;;;;;;9.75;3.70;;;;;;;;;;10490959;28;20390;-76
2022/09/21 03:34:55;;;;;;;9.27;3.20;;;;;;;;;;10481466;28;20106;-76
2022/09/21 03:40:03;;;;;;;8.07;2.83;;;;;;;;;;10482302;28;20036;-77
2022/09/21 03:45:09;;;;;;;6.47;3.10;;;;;;;;;;10491801;28;20119;-77
2022/09/21 03:50:16;;;;;;;6.50;2.72;;;;;;;;;;10485782;28;20051;-77
2022/09/21 03:55:28;;;;;;;7.10;3.17;;;;;;;;;;10481793;28;20048;-78
2022/09/21 04:00:33;;;;;;;6.65;3.33;;;;;;;;;;10472514;28;20036;-78
2022/09/21 04:05:39;;;;;;;8.50;3.13;;;;;;;;;;10486142;28;20510;-76
2022/09/21 04:10:58;;;;;;;6.63;2.85;;;;;;;;;;10486502;28;20052;-76
2022/09/21 04:16:06;;;;;;;7.90;3.08;;;;;;;;;;10487351;28;20080;-77
2022/09/21 04:21:09;;;;;;;6.95;3.22;;;;;;;;;;10491655;28;20044;-76
2022/09/21 04:26:25;;;;;;;10.65;2.95;;;;;;;;;;10489880;28;20513;-76
2022/09/21 04:31:29;;;;;;;9.95;3.45;;;;;;;;;;10489166;28;20033;-76
2022/09/21 04:36:33;;;;;;;8.32;3.58;;;;;;;;;;10479971;28;20054;-77
2022/09/21 04:41:42;;;;;;;7.95;3.38;;;;;;;;;;10467162;28;20036;-76
2022/09/21 04:46:47;;;;;;;14.07;3.50;;;;;;;;;;10486043;28;20041;-76
2022/09/21 04:51:51;;;;;;;;;;;;;;;;;;10495055;28;20123;-75
2022/09/21 04:56:56;;;;;;;;;;;;;;;;;;10484068;28;19928;-76
2022/09/21 05:02:05;;;;;;;9.95;3.70;;;;;;;;;;10482005;28;19952;-77
2022/09/21 05:07:10;;;;;;;9.75;3.72;;;;;;;;;;10490057;28;20044;-76
2022/09/21 05:12:18;;;;;;;12.05;4.22;;;;;;;;;;10477478;28;20044;-77
2022/09/21 05:17:24;;;;;;;11.38;4.00;;;;;;;;;;10486765;28;20060;-77
2022/09/21 05:22:35;;;;;;;10.48;4.28;;;;;;;;;;10480992;28;20045;-78
2022/09/21 05:27:45;;;;;;;8.27;3.67;;;;;;;;;;10471035;28;20144;-76
2022/09/21 05:32:58;;;;;;;8.45;3.67;;;;;;;;;;10458011;28;20044;-77
2022/09/21 05:38:14;;;;;;;7.45;3.85;;;;;;;;;;10476463;28;20045;-77
2022/09/21 05:43:20;;;;;;;15.98;5.22;;;;;;;;;;10471307;28;20036;-76
2022/09/21 05:48:28;;;;;;;10.15;4.35;;;;;;;;;;10477659;28;20133;-76
2022/09/21 05:53:50;;;;;;;8.57;4.25;;;;;;;;;;10479410;28;20123;-77
2022/09/21 05:59:02;;;;;;;7.38;3.63;;;;;;;;;;10472060;28;20181;-78
2022/09/21 06:04:08;;;;;;;10.73;3.78;;;;;;;;;;10477687;28;20047;-75
2022/09/21 06:09:15;;;;;;;10.68;3.83;;;;;;;;;;10473524;28;20118;-77
2022/09/21 06:14:24;;;;;;;9.75;4.32;;;;;;;;;;10468249;28;20036;-76
2022/09/21 06:19:31;;;;;;;7.10;3.35;;;;;;;;;;10473656;28;20059;-76
2022/09/21 06:24:36;;;;;;;5.80;3.05;;;;;;;;;;10475304;28;20208;-78
2022/09/21 06:29:41;;;;;;;4.65;2.53;;;;;;;;;;10472366;28;20145;-78
2022/09/21 06:35:06;;;;;;;8.88;2.58;;;;;;;;;;10478098;28;20041;-77
2022/09/21 06:40:11;;;;;;;5.63;2.80;;;;;;;;;;10484597;28;20299;-77
2022/09/21 06:45:21;;;;;;;5.72;2.80;;;;;;;;;;10476256;28;20068;-76
2022/09/21 06:50:27;;;;;;;7.85;2.72;;;;;;;;;;10479686;28;20048;-76
2022/09/21 06:55:34;;;;;;;11.27;3.20;;;;;;;;;;10459704;28;20064;-77
2022/09/21 07:00:42;;;;;;;6.22;3.28;;;;;;;;;;10482238;28;20043;-78
2022/09/21 07:06:07;;;;;;;6.90;2.92;;;;;;;;;;10478426;28;20515;-76
2022/09/21 07:11:18;;;;;;;11.20;3.25;;;;;;;;;;10467903;28;20037;-76
2022/09/21 07:16:23;;;;;;;5.22;2.75;;;;;;;;;;10483355;28;20033;-78
2022/09/21 07:21:30;;;;;;;6.63;3.30;;;;;;;;;;10478825;28;20040;-78
2022/09/21 07:26:36;;;;;;;4.63;2.80;;;;;;;;;;10482684;28;20048;-77
2022/09/21 07:31:42;;;;;;;4.25;2.97;;;;;;;;;;10480963;28;20158;-77
2022/09/21 07:36:55;;;;;;;4.35;2.70;;;;;;;;;;10475034;28;20037;-78
2022/09/21 07:42:08;;;;;;;3.40;2.40;;;;;;;;;;10476950;28;20044;-77
2022/09/21 07:47:27;;;;;;;4.68;2.50;;;;;;;;;;10473769;28;20041;-78
2022/09/21 07:52:41;;;;;;;4.18;2.28;;;;;;;;;;10482735;28;20039;-78
2022/09/21 08:03:07;;;;;;;1.70;1.50;;;;;;;;;;10479890;28;20056;-78
2022/09/21 08:08:25;;;;;;;3.40;1.90;;;;;;;;;;10477295;28;20348;-77
2022/09/21 08:13:32;;;;;;;2.22;1.80;;;;;;;;;;10473940;28;20059;-77
2022/09/21 08:18:39;;;;;;;4.95;1.70;;;;;;;;;;10473324;28;20080;-77
2022/09/21 08:23:48;;;;;;;2.03;1.52;;;;;;;;;;10472190;28;20298;-77
2022/09/21 08:28:59;;;;;;;2.30;1.70;;;;;;;;;;10479930;28;20130;-77
2022/09/21 08:34:03;;;;;;;4.20;2.63;;;;;;;;;;10479444;28;20130;-77
2022/09/21 08:39:19;;;;;;;3.70;1.85;;;;;;;;;;10481007;28;20049;-77
2022/09/21 08:44:28;;;;;;;3.80;1.70;;;;;;;;;;10483211;28;20040;-78
2022/09/21 08:49:39;;;;;;;1.73;1.60;;;;;;;;;;10480525;28;20044;-78
2022/09/21 08:54:47;;;;;;;4.65;1.70;;;;;;;;;;10475813;28;20037;-78
2022/09/21 08:59:52;;;;;;;3.85;1.80;;;;;;;;;;10464043;28;20450;-77
2022/09/21 09:05:00;;;;;;;2.55;1.75;;;;;;;;;;10464724;28;21061;-77
2022/09/21 09:10:17;;;;;;;2.72;2.05;;;;;;;;;;10488273;28;20103;-78
2022/09/21 09:15:35;;;;;;;3.13;2.17;;;;;;;;;;10473401;28;20342;-79
2022/09/21 09:20:44;;;;;;;4.00;2.10;;;;;;;;;;10477521;28;20041;-76
2022/09/21 09:25:55;;;;;;;2.40;1.50;;;;;;;;;;10472929;28;20298;-78
2022/09/21 09:31:12;;;;;;;1.65;1.27;;;;;;;;;;10462437;28;20045;-78
2022/09/21 09:36:18;;;;;;;2.22;1.90;;;;;;;;;;10472169;28;20044;-78
2022/09/21 09:41:52;;;;;;;2.17;1.80;;;;;;;;;;10466704;28;20491;-78
2022/09/21 09:47:01;;;;;;;2.55;2.00;;;;;;;;;;10475764;28;20129;-78
2022/09/21 09:52:07;;;;;;;2.45;1.90;;;;;;;;;;10472272;28;20478;-78
2022/09/21 09:57:27;;;;;;;2.53;1.50;;;;;;;;;;10475489;28;20069;-77
2022/09/21 10:02:47;;;;;;;3.17;1.30;;;;;;;;;;10472206;28;20040;-76
2022/09/21 10:07:53;;;;;;;2.35;1.80;;;;;;;;;;10474795;28;20041;-76
2022/09/21 10:13:04;;;;;;;1.88;1.20;;;;;;;;;;10471572;28;20580;-77
2022/09/21 10:18:16;;;;;;;1.95;1.75;;;;;;;;;;10471693;28;20040;-77
2022/09/21 10:23:22;;;;;;;2.70;1.65;;;;;;;;;;10452091;28;20517;-77
2022/09/21 10:28:27;;;;;;;1.70;1.60;;;;;;;;;;10473064;28;20048;-77
2022/09/21 10:33:37;;;;;;;3.58;1.92;;;;;;;;;;10472254;28;20047;-76
2022/09/21 10:38:46;;;;;;;2.05;1.85;;;;;;;;;;10473460;28;20056;-76
2022/09/21 10:43:53;;;;;;;1.80;1.63;;;;;;;;;;10473672;28;20037;-77
2022/09/21 10:49:03;;;;;;;2.20;2.10;;;;;;;;;;10473580;28;20059;-78
2022/09/21 10:54:09;;;;;;;2.30;1.77;;;;;;;;;;10477005;28;20658;-78
2022/09/21 10:59:29;;;;;;;3.03;1.80;;;;;;;;;;10478148;28;20048;-76
2022/09/21 11:04:46;;;;;;;3.30;1.60;;;;;;;;;;10477173;28;20087;-77
2022/09/21 11:09:54;;;;;;;2.00;1.80;;;;;;;;;;10475364;28;20040;-77
2022/09/21 11:15:03;;;;;;;1.15;1.05;;;;;;;;;;10470556;28;20037;-77
2022/09/21 11:20:21;;;;;;;3.78;2.15;;;;;;;;;;10474638;28;20401;-77
2022/09/21 11:25:31;;;;;;;1.67;1.00;;;;;;;;;;10477466;28;20036;-75
2022/09/21 11:30:45;;;;;;;1.63;1.52;;;;;;;;;;10476388;28;20036;-75
2022/09/21 11:36:05;;;;;;;1.52;1.42;;;;;;;;;;10480438;28;20569;-76
2022/09/21 11:41:21;;;;;;;1.53;0.80;;;;;;;;;;10477636;28;20067;-77
2022/09/21 11:46:33;;;;;;;1.48;1.33;;;;;;;;;;10477306;28;20084;-76
2022/09/21 11:51:46;;;;;;;1.45;0.80;;;;;;;;;;10478892;28;20127;-76
2022/09/21 11:56:57;;;;;;;1.40;1.30;;;;;;;;;;10458748;28;20063;-75
2022/09/21 12:02:10;;;;;;;1.60;1.50;;;;;;;;;;10475598;28;20040;-75
2022/09/21 12:07:29;;;;;;;1.23;0.85;;;;;;;;;;10475379;28;20048;-76
2022/09/21 12:12:41;;;;;;;1.58;1.45;;;;;;;;;;10470671;28;20087;-75
2022/09/21 12:17:49;;;;;;;2.00;0.85;;;;;;;;;;10474319;28;20074;-75
2022/09/21 12:22:58;;;;;;;4.32;1.60;;;;;;;;;;10482052;28;20128;-76
2022/09/21 12:28:07;;;;;;;2.83;1.48;;;;;;;;;;10464862;28;20041;-76
2022/09/21 12:33:21;;;;;;;3.47;1.70;;;;;;;;;;10474645;28;20046;-76
2022/09/21 12:38:29;;;;;;;2.30;0.83;;;;;;;;;;10459914;28;20040;-76
2022/09/21 12:43:38;;;;;;;2.72;0.85;;;;;;;;;;10473130;28;20040;-77
2022/09/21 12:48:44;;;;;;;3.75;1.40;;;;;;;;;;10478072;28;20790;-77
2022/09/21 12:53:57;;;;;;;1.23;1.10;;;;;;;;;;10477487;28;20275;-75
2022/09/21 12:59:11;;;;;;;3.38;1.20;;;;;;;;;;10474778;28;20172;-75
2022/09/21 13:04:33;;;;;;;1.45;0.60;;;;;;;;;;10468075;28;20428;-75
2022/09/21 13:09:42;;;;;;;2.00;0.73;;;;;;;;;;10472626;28;20510;-76
2022/09/21 13:14:50;;;;;;;1.08;0.85;;;;;;;;;;10477661;28;20043;-76
2022/09/21 13:19:58;;;;;;;1.85;1.50;;;;;;;;;;10477838;28;20710;-76
2022/09/21 13:25:15;;;;;;;1.13;1.10;;;;;;;;;;10457639;28;20048;-75
2022/09/21 13:30:39;;;;;;;1.25;1.20;;;;;;;;;;10473905;28;20305;-76
2022/09/21 13:36:00;;;;;;;1.92;1.40;;;;;;;;;;10472902;28;20591;-76
2022/09/21 13:41:11;;;;;;;1.95;1.17;;;;;;;;;;10477730;28;20048;-76
2022/09/21 13:46:34;;;;;;;3.42;1.42;;;;;;;;;;10472133;28;20047;-76
2022/09/21 13:51:56;;;;;;;1.42;1.10;;;;;;;;;;10470837;28;20048;-77
2022/09/21 13:57:16;;;;;;;1.08;0.95;;;;;;;;;;10475776;28;20059;-77
2022/09/21 14:02:26;;;;;;;1.73;0.80;;;;;;;;;;10476485;28;20123;-76
2022/09/21 14:07:31;;;;;;;3.13;1.10;;;;;;;;;;10457457;28;20099;-76
2022/09/21 14:12:40;;;;;;;0.80;0.75;;;;;;;;;;10470980;28;20531;-76
2022/09/21 14:17:46;;;;;;;0.70;0.63;;;;;;;;;;10470737;28;20048;-76
2022/09/21 14:23:10;;;;;;;1.27;0.73;;;;;;;;;;10474293;28;20036;-76
2022/09/21 14:28:40;;;;;;;1.80;0.70;;;;;;;;;;10472321;28;20044;-76
2022/09/21 14:33:47;;;;;;;1.23;0.73;;;;;;;;;;10471831;28;20713;-75
2022/09/21 14:38:59;;;;;;;4.03;2.13;;;;;;;;;;10485270;28;20501;-74
2022/09/21 14:44:18;;;;;;;1.35;0.63;;;;;;;;;;10472501;28;20540;-75
2022/09/21 14:49:51;;;;;;;2.05;0.60;;;;;;;;;;10499635;28;20550;-75
2022/09/21 14:55:02;;;;;;;3.05;1.67;;;;;;;;;;10477671;28;20040;-75
2022/09/21 15:00:19;;;;;;;0.80;0.80;;;;;;;;;;10480075;28;20047;-75
2022/09/21 15:05:33;;;;;;;1.52;0.80;;;;;;;;;;10483970;28;20066;-76
2022/09/21 15:11:00;;;;;;;1.13;0.50;;;;;;;;;;10481281;28;20286;-77
2022/09/21 15:16:20;;;;;;;3.03;0.70;;;;;;;;;;10465230;28;20139;-78
2022/09/21 15:21:33;;;;;;;4.18;1.38;;;;;;;;;;10482070;28;20399;-75
2022/09/21 15:26:42;;;;;;;1.00;0.90;;;;;;;;;;10481449;28;20043;-77
2022/09/21 15:31:53;;;;;;;1.67;0.90;;;;;;;;;;10484647;28;20065;-77
2022/09/21 15:37:06;;;;;;;1.35;0.80;;;;;;;;;;10492015;28;20068;-77
2022/09/21 15:42:10;;;;;;;;;;;;;;;;;;10481281;28;20040;-76
2022/09/21 15:47:16;;;;;;;;;;;;;;;;;;10481692;28;19927;-78
2022/09/21 15:52:31;;;;;;;4.38;0.80;;;;;;;;;;10476666;28;19969;-78
2022/09/21 15:57:41;;;;;;;2.63;1.02;;;;;;;;;;10479144;28;20473;-76
2022/09/21 16:03:06;;;;;;;0.70;0.70;;;;;;;;;;10466140;28;20476;-76
2022/09/21 16:08:29;;;;;;;2.78;1.10;;;;;;;;;;10478083;28;20109;-76
2022/09/21 16:19:03;;;;;;;2.22;1.08;;;;;;;;;;10485601;28;20048;-77
2022/09/21 16:24:18;;;;;;;1.30;0.90;;;;;;;;;;10485115;28;20032;-77
2022/09/21 16:29:30;;;;;;;2.47;1.25;;;;;;;;;;10489779;28;20413;-77
2022/09/21 16:34:44;;;;;;;1.38;1.13;;;;;;;;;;10490146;28;20127;-76
2022/09/21 16:39:50;;;;;;;4.18;1.73;;;;;;;;;;10473918;28;20428;-75
2022/09/21 16:44:55;;;;;;;3.80;2.22;;;;;;;;;;10474964;28;20122;-76
2022/09/21 16:50:00;;;;;;;2.38;1.45;;;;;;;;;;10480914;28;20155;-75
2022/09/21 16:55:27;;;;;;;4.15;1.80;;;;;;;;;;10495894;28;20048;-78
2022/09/21 17:00:32;;;;;;;;;;;;;;;;;;10478818;28;20036;-77
2022/09/21 17:05:37;;;;;;;2.67;1.60;;;;;;;;;;10479690;28;19940;-75
2022/09/21 17:10:44;;;;;;;1.85;1.30;;;;;;;;;;10477008;28;20040;-76
2022/09/21 17:15:54;;;;;;;5.22;1.60;;;;;;;;;;10482718;28;20351;-75
2022/09/21 17:20:59;;;;;;;1.85;1.38;;;;;;;;;;10486951;28;20053;-76
2022/09/21 17:26:16;;;;;;;3.80;1.70;;;;;;;;;;10492222;28;20048;-78
2022/09/21 17:31:28;;;;;;;2.10;1.25;;;;;;;;;;10527196;28;20037;-76
2022/09/21 17:36:34;;;;;;;5.03;2.60;;;;;;;;;;10521925;28;20017;-75
2022/09/21 17:41:43;;;;;;;4.20;1.90;;;;;;;;;;10516325;28;20070;-78
2022/09/21 17:46:58;;;;;;;2.88;1.60;;;;;;;;;;10522872;28;20136;-77
2022/09/21 17:57:35;;;;;;;3.10;1.60;;;;;;;;;;10526846;28;20056;-75
2022/09/21 18:02:39;;;;;;;6.38;1.67;;;;;;;;;;10521848;28;20041;-75
2022/09/21 18:07:45;;;;;;;3.35;2.05;;;;;;;;;;10522479;28;20033;-79
2022/09/21 18:13:18;;;;;;;6.15;2.75;;;;;;;;;;10524216;28;20052;-77
2022/09/21 18:18:42;;;;;;;3.97;1.85;;;;;;;;;;10474669;28;20063;-77
2022/09/21 18:24:09;;;;;;;10.57;5.10;;;;;;;;;;10537767;28;20060;-76
2022/09/21 18:29:26;;;;;;;4.60;2.15;;;;;;;;;;10537657;28;20059;-78
2022/09/21 18:35:09;;;;;;;2.95;1.48;;;;;;;;;;10502034;28;20052;-77
2022/09/21 18:40:33;;;;;;;6.47;2.92;;;;;;;;;;10452514;28;20148;-77
2022/09/21 18:45:43;;;;;;;4.63;1.98;;;;;;;;;;10499724;28;20248;-77
2022/09/21 18:50:55;;;;;;;2.85;1.73;;;;;;;;;;10485940;28;20135;-77
2022/09/21 18:56:18;;;;;;;2.55;1.50;;;;;;;;;;10490424;28;20402;-77
2022/09/21 19:01:34;;;;;;;4.32;1.60;;;;;;;;;;10498416;28;20040;-78
2022/09/21 19:06:44;;;;;;;3.38;1.67;;;;;;;;;;10486680;28;20123;-77
2022/09/21 19:11:55;;;;;;;5.53;2.10;;;;;;;;;;10488899;28;20592;-77
2022/09/21 19:17:09;;;;;;;7.72;2.28;;;;;;;;;;10479046;28;20036;-77
2022/09/21 19:22:25;;;;;;;6.38;2.47;;;;;;;;;;10494679;28;20045;-77
2022/09/21 19:27:34;;;;;;;3.33;1.90;;;;;;;;;;10480369;28;20048;-77
2022/09/21 19:32:56;;;;;;;7.80;2.47;;;;;;;;;;10476052;28;20051;-77
2022/09/21 19:38:04;;;;;;;6.68;2.45;;;;;;;;;;10458970;28;20052;-77
2022/09/21 19:43:13;;;;;;;3.63;2.10;;;;;;;;;;10484489;28;20071;-76
2022/09/21 19:48:22;;;;;;;4.75;1.77;;;;;;;;;;10492879;28;20353;-76
2022/09/21 20:04:38;;;;;;;4.10;2.58;;;;;;;;;;10517595;28;20087;-76
2022/09/21 20:09:44;;;;;;;4.85;2.40;;;;;;;;;;10484831;28;20115;-77
2022/09/21 20:14:53;;;;;;;4.85;2.28;;;;;;;;;;10487589;28;20029;-77
2022/09/21 20:20:07;;;;;;;4.95;2.17;;;;;;;;;;10484952;28;20048;-76
2022/09/21 20:25:15;;;;;;;6.05;2.25;;;;;;;;;;10456415;28;20047;-75
2022/09/21 20:30:23;;;;;;;3.83;2.28;;;;;;;;;;10487576;28;20056;-77
2022/09/21 20:35:33;;;;;;;3.17;2.08;;;;;;;;;;10479957;28;20037;-76
2022/09/21 20:40:39;;;;;;;4.10;2.35;;;;;;;;;;10494531;28;20421;-76
2022/09/21 20:45:46;;;;;;;4.28;2.53;;;;;;;;;;10483282;28;20142;-76
2022/09/21 20:50:57;;;;;;;4.22;2.53;;;;;;;;;;10480713;28;20090;-77
2022/09/21 20:56:05;;;;;;;6.22;2.22;;;;;;;;;;10481870;28;20039;-76
2022/09/21 21:01:14;;;;;;;4.32;2.50;;;;;;;;;;10480768;28;20064;-77
2022/09/21 21:06:25;;;;;;;5.57;2.22;;;;;;;;;;10483804;28;20128;-75
2022/09/21 21:11:30;;;;;;;6.22;2.35;;;;;;;;;;10483411;28;20124;-76
2022/09/21 21:16:38;;;;;;;5.22;2.50;;;;;;;;;;10480911;28;20548;-77
2022/09/21 21:21:49;;;;;;;5.55;2.90;;;;;;;;;;10482983;28;20399;-77
2022/09/21 21:26:56;;;;;;;7.53;2.97;;;;;;;;;;10482051;28;20044;-77
2022/09/21 21:32:05;;;;;;;7.10;2.85;;;;;;;;;;10481659;28;20048;-76
2022/09/21 21:37:13;;;;;;;9.10;2.92;;;;;;;;;;10485092;28;20044;-75
2022/09/21 21:42:20;;;;;;;6.80;2.80;;;;;;;;;;10485520;28;20048;-76
2022/09/21 21:47:26;;;;;;;7.75;3.45;;;;;;;;;;10514634;28;20190;-76
2022/09/21 21:52:44;;;;;;;5.50;2.25;;;;;;;;;;10470530;28;20545;-76
2022/09/21 21:57:48;;;;;;;6.57;3.17;;;;;;;;;;10497282;28;20040;-76
2022/09/21 22:02:53;;;;;;;6.23;2.77;;;;;;;;;;10494140;28;20551;-75
2022/09/21 22:08:12;;;;;;;5.82;3.10;;;;;;;;;;10505572;28;20299;-77
2022/09/21 22:13:22;;;;;;;7.22;3.10;;;;;;;;;;10500326;28;20032;-76
2022/09/21 22:18:27;;;;;;;4.63;2.50;;;;;;;;;;10528423;28;20037;-75
2022/09/21 22:23:34;;;;;;;6.35;2.90;;;;;;;;;;10520786;28;20082;-76
2022/09/21 22:28:42;;;;;;;9.23;2.90;;;;;;;;;;10494577;28;20055;-76
2022/09/21 22:33:47;;;;;;;9.07;3.10;;;;;;;;;;10485658;28;20098;-76
2022/09/21 22:39:00;;;;;;;5.50;2.67;;;;;;;;;;10484677;28;20112;-75
2022/09/21 22:44:10;;;;;;;5.63;2.47;;;;;;;;;;10482935;28;20036;-76
2022/09/21 22:49:13;;;;;;;7.15;2.88;;;;;;;;;;10486809;28;20135;-77
2022/09/21 22:54:22;;;;;;;5.78;3.00;;;;;;;;;;10481112;28;20076;-75
2022/09/21 22:59:28;;;;;;;7.70;3.03;;;;;;;;;;10467506;28;20053;-76
2022/09/21 23:04:32;;;;;;;7.57;3.15;;;;;;;;;;10462732;28;20045;-75
2022/09/21 23:09:37;;;;;;;5.22;2.72;;;;;;;;;;10479849;28;20040;-76
2022/09/21 23:15:01;;;;;;;8.23;3.08;;;;;;;;;;10499584;28;20167;-76
2022/09/21 23:20:07;;;;;;;7.32;3.00;;;;;;;;;;10484545;28;20418;-75
2022/09/21 23:25:11;;;;;;;7.68;3.33;;;;;;;;;;10482025;28;20093;-76
2022/09/21 23:30:16;;;;;;;6.60;2.95;;;;;;;;;;10490134;28;20044;-75
2022/09/21 23:35:25;;;;;;;5.50;2.75;;;;;;;;;;10483527;28;20707;-75
2022/09/21 23:40:30;;;;;;;7.10;3.53;;;;;;;;;;10479778;28;20053;-75
2022/09/21 23:45:34;;;;;;;7.95;2.92;;;;;;;;;;10486132;28;20403;-75
2022/09/21 23:50:40;;;;;;;7.80;2.85;;;;;;;;;;10482110;28;20048;-76
2022/09/21 23:55:53;;;;;;;5.53;2.70;;;;;;;;;;10484046;28;20055;-76
